Time;durP1;ratioP1;P1;durP2;ratioP2;P2;SDS_P1;SDS_P2;PMS_P1;PMS_P2;Temp;Humidity;BMP_temperature;BMP_pressure;BME280_temperature;BME280_humidity;BME280_pressure;Samples;Min_cycle;Max_cycle;Signal;HPM_P1;HPM_P2
2023/08/04 00:00:31;;;;;;;8.20;2.70;;;16.60;99.90;;;;;;4996427;28;20129;-79
2023/08/04 00:02:58;;;;;;;6.75;2.83;;;16.50;99.90;;;;;;4988675;28;20525;-79
2023/08/04 00:05:24;;;;;;;10.57;3.45;;;16.60;99.90;;;;;;5000205;28;20046;-79
2023/08/04 00:07:50;;;;;;;10.98;3.03;;;16.60;99.90;;;;;;4990769;28;20045;-80
2023/08/04 00:10:17;;;;;;;8.63;2.85;;;16.60;99.90;;;;;;4992083;28;20284;-79
2023/08/04 00:12:45;;;;;;;6.28;2.47;;;16.60;99.90;;;;;;4992482;28;20038;-80
2023/08/04 00:15:16;;;;;;;7.45;2.63;;;16.60;99.90;;;;;;5007756;28;20045;-79
2023/08/04 00:17:42;;;;;;;7.50;2.65;;;16.60;99.90;;;;;;4987537;28;20056;-79
2023/08/04 00:20:10;;;;;;;7.35;2.67;;;16.60;99.90;;;;;;5005420;28;20042;-79
2023/08/04 00:22:36;;;;;;;7.63;2.70;;;16.60;99.90;;;;;;4999993;28;20041;-81
2023/08/04 00:25:03;;;;;;;11.43;2.58;;;16.60;99.90;;;;;;4993581;28;20520;-81
2023/08/04 00:27:28;;;;;;;11.90;3.03;;;16.60;99.90;;;;;;4988072;28;20101;-81
2023/08/04 00:30:01;;;;;;;4.88;2.38;;;16.60;99.90;;;;;;5011831;28;20073;-81
2023/08/04 00:32:27;;;;;;;9.48;2.60;;;16.60;99.90;;;;;;5007947;28;20041;-80
2023/08/04 00:34:53;;;;;;;11.95;2.95;;;16.50;99.90;;;;;;4991659;28;20107;-81
2023/08/04 00:37:19;;;;;;;9.32;2.90;;;16.50;99.90;;;;;;4990196;28;20537;-81
2023/08/04 00:39:45;;;;;;;9.73;2.67;;;16.50;99.90;;;;;;4988712;28;20074;-81
2023/08/04 00:42:10;;;;;;;7.65;2.80;;;16.50;99.90;;;;;;4991592;28;20046;-81
2023/08/04 00:44:36;;;;;;;8.35;2.33;;;16.50;99.90;;;;;;4998572;28;20045;-81
2023/08/04 00:47:03;;;;;;;8.40;2.60;;;16.50;99.90;;;;;;4998977;28;20042;-81
2023/08/04 00:49:29;;;;;;;8.13;2.80;;;16.40;99.90;;;;;;5002531;28;20034;-80
2023/08/04 00:51:55;;;;;;;8.80;3.08;;;16.40;99.90;;;;;;4997974;28;20088;-80
2023/08/04 00:54:22;;;;;;;9.50;3.20;;;16.30;99.90;;;;;;5001283;28;20030;-81
2023/08/04 00:56:50;;;;;;;8.15;2.83;;;16.40;99.90;;;;;;5000739;28;20061;-81
2023/08/04 00:59:15;;;;;;;7.72;2.65;;;16.40;99.90;;;;;;4982939;28;20045;-81
2023/08/04 01:01:41;;;;;;;8.77;2.95;;;16.40;99.90;;;;;;4989559;28;20042;-81
2023/08/04 01:04:06;;;;;;;8.98;2.90;;;16.30;99.90;;;;;;5015187;28;20034;-80
2023/08/04 01:06:46;;;;;;;9.82;2.78;;;16.30;99.90;;;;;;5005954;28;20037;-80
2023/08/04 01:09:33;;;;;;;8.02;2.75;;;16.20;99.90;;;;;;5024130;28;20077;-80
2023/08/04 01:12:34;;;;;;;7.05;2.63;;;16.20;99.90;;;;;;4980815;28;20073;-80
2023/08/04 01:15:02;;;;;;;7.43;2.83;;;16.20;99.90;;;;;;5002768;28;20042;-80
2023/08/04 01:17:30;;;;;;;7.97;2.70;;;16.10;99.90;;;;;;5019028;28;20072;-80
2023/08/04 01:19:56;;;;;;;6.78;2.65;;;16.10;99.90;;;;;;5003556;28;20042;-80
2023/08/04 01:22:22;;;;;;;7.60;2.70;;;16.00;99.90;;;;;;4979568;28;20528;-80
2023/08/04 01:24:53;;;;;;;7.18;2.92;;;16.00;99.90;;;;;;4994964;28;20651;-80
2023/08/04 01:27:43;;;;;;;6.80;2.90;;;16.00;99.90;;;;;;4996040;28;20125;-80
2023/08/04 01:30:18;;;;;;;7.68;2.95;;;15.90;99.90;;;;;;4982398;28;20069;-80
2023/08/04 01:32:44;;;;;;;9.55;2.75;;;15.90;99.90;;;;;;5002156;28;20069;-81
2023/08/04 01:35:10;;;;;;;11.38;3.38;;;15.80;99.90;;;;;;5001117;28;20068;-81
2023/08/04 01:37:36;;;;;;;8.18;3.30;;;15.80;99.90;;;;;;4993935;28;20060;-81
2023/08/04 01:40:02;;;;;;;7.40;2.70;;;15.80;99.90;;;;;;4999845;28;20037;-81
2023/08/04 01:42:28;;;;;;;13.35;3.30;;;15.80;99.90;;;;;;5000810;28;20516;-81
2023/08/04 01:44:53;;;;;;;9.88;2.75;;;15.90;99.90;;;;;;4999965;28;20172;-81
2023/08/04 01:47:19;;;;;;;10.77;2.70;;;15.80;99.90;;;;;;4998971;28;20501;-81
2023/08/04 01:49:44;;;;;;;7.60;3.00;;;15.80;99.90;;;;;;4999383;28;20100;-81
2023/08/04 01:52:10;;;;;;;7.30;3.20;;;15.80;99.90;;;;;;4985347;28;20485;-81
2023/08/04 01:54:35;;;;;;;8.07;3.00;;;15.80;99.90;;;;;;4996752;28;20098;-81
2023/08/04 01:57:01;;;;;;;7.32;2.70;;;15.80;99.90;;;;;;4993357;28;20120;-81
2023/08/04 01:59:27;;;;;;;11.38;2.80;;;15.80;99.90;;;;;;5022441;28;20393;-81
2023/08/04 02:01:53;;;;;;;8.18;2.85;;;15.90;99.90;;;;;;4999835;28;20042;-81
2023/08/04 02:04:18;;;;;;;5.70;2.70;;;15.80;99.90;;;;;;5006500;28;20033;-81
2023/08/04 02:06:44;;;;;;;7.20;2.70;;;15.80;99.90;;;;;;4992790;28;20128;-81
2023/08/04 02:09:11;;;;;;;9.60;2.75;;;15.80;99.90;;;;;;4997986;28;20042;-81
2023/08/04 02:11:37;;;;;;;6.65;2.70;;;16.00;99.90;;;;;;4999362;28;20049;-81
2023/08/04 02:14:02;;;;;;;8.25;2.75;;;15.80;99.90;;;;;;4982754;28;20073;-81
2023/08/04 02:16:28;;;;;;;5.18;2.70;;;15.80;99.90;;;;;;4999399;28;20132;-80
2023/08/04 02:19:01;;;;;;;6.95;2.90;;;15.80;99.90;;;;;;4998108;28;20094;-80
2023/08/04 02:21:26;;;;;;;6.72;2.50;;;15.70;99.90;;;;;;5002436;28;20096;-81
2023/08/04 02:23:52;;;;;;;7.05;2.60;;;15.70;99.90;;;;;;5009650;28;20434;-81
2023/08/04 02:26:17;;;;;;;5.72;2.10;;;15.70;99.90;;;;;;4999215;28;20034;-81
2023/08/04 02:28:43;;;;;;;7.38;2.50;;;15.70;99.90;;;;;;4999703;28;21823;-81
2023/08/04 02:31:09;;;;;;;5.20;2.00;;;15.80;99.90;;;;;;5000616;28;20045;-81
2023/08/04 02:33:34;;;;;;;6.05;2.20;;;15.70;99.90;;;;;;4998850;28;20674;-81
2023/08/04 02:36:01;;;;;;;6.43;2.05;;;15.80;99.90;;;;;;4996228;28;20045;-80
2023/08/04 02:38:26;;;;;;;4.97;2.25;;;15.70;99.90;;;;;;4997615;28;20038;-81
2023/08/04 02:40:52;;;;;;;8.88;2.10;;;15.80;99.90;;;;;;5004510;28;20518;-81
2023/08/04 02:43:18;;;;;;;7.45;2.30;;;15.80;99.90;;;;;;4999501;28;20107;-80
2023/08/04 02:45:51;;;;;;;9.05;2.10;;;15.80;99.90;;;;;;4998092;28;20045;-80
2023/08/04 02:48:17;;;;;;;6.38;2.50;;;15.80;99.90;;;;;;4993827;28;20041;-80
2023/08/04 02:50:43;;;;;;;4.80;2.00;;;15.80;99.90;;;;;;5005481;28;20048;-81
2023/08/04 02:53:09;;;;;;;7.65;2.20;;;15.80;99.90;;;;;;4996573;28;20069;-80
2023/08/04 02:55:34;;;;;;;3.42;2.30;;;15.80;99.90;;;;;;4998724;28;20042;-81
2023/08/04 02:58:00;;;;;;;5.75;2.00;;;15.80;99.90;;;;;;5014809;28;20049;-81
2023/08/04 03:00:26;;;;;;;4.60;1.98;;;15.80;99.90;;;;;;4998876;28;20069;-80
2023/08/04 03:02:52;;;;;;;3.78;2.00;;;15.80;99.90;;;;;;4998672;28;20048;-81
2023/08/04 03:05:17;;;;;;;4.88;2.20;;;15.80;99.90;;;;;;5008857;28;20041;-81
2023/08/04 03:07:43;;;;;;;6.95;2.42;;;15.80;99.90;;;;;;4991613;28;20050;-80
2023/08/04 03:10:09;;;;;;;5.55;2.08;;;15.80;99.90;;;;;;4994833;28;20044;-80
2023/08/04 03:12:34;;;;;;;6.35;2.40;;;15.80;99.90;;;;;;4996890;28;20041;-80
2023/08/04 03:15:00;;;;;;;3.80;1.83;;;15.80;99.90;;;;;;4997965;28;20100;-80
2023/08/04 03:17:26;;;;;;;6.00;2.03;;;15.80;99.90;;;;;;5000338;28;20034;-80
2023/08/04 03:19:51;;;;;;;6.03;1.90;;;15.80;99.90;;;;;;4994318;28;20042;-81
2023/08/04 03:22:17;;;;;;;4.78;2.15;;;15.80;99.90;;;;;;4998238;28;20588;-81
2023/08/04 03:24:42;;;;;;;3.97;1.70;;;15.80;99.90;;;;;;4999464;28;20070;-80
2023/08/04 03:27:08;;;;;;;7.03;1.90;;;15.80;99.90;;;;;;5006431;28;20100;-80
2023/08/04 03:29:34;;;;;;;6.00;2.13;;;15.80;99.90;;;;;;5021019;28;20037;-81
2023/08/04 03:31:59;;;;;;;4.65;2.08;;;15.80;99.90;;;;;;5000070;28;20191;-80
2023/08/04 03:34:25;;;;;;;4.18;1.98;;;15.80;99.90;;;;;;4999987;28;20631;-81
2023/08/04 03:36:51;;;;;;;5.30;2.30;;;15.80;99.90;;;;;;5000413;28;20053;-81
2023/08/04 03:39:16;;;;;;;5.53;1.90;;;15.80;99.90;;;;;;4984199;28;20055;-80
2023/08/04 03:41:42;;;;;;;4.28;1.52;;;15.80;99.90;;;;;;5009845;28;20088;-81
2023/08/04 03:44:07;;;;;;;9.00;2.33;;;15.80;99.90;;;;;;4998277;28;20042;-80
2023/08/04 03:46:33;;;;;;;2.78;1.60;;;15.80;99.90;;;;;;4998081;28;20092;-81
2023/08/04 03:48:59;;;;;;;4.50;1.70;;;15.90;99.90;;;;;;5015172;28;20490;-81
2023/08/04 03:51:24;;;;;;;2.63;1.70;;;15.90;99.90;;;;;;4997903;28;20420;-80
2023/08/04 03:53:50;;;;;;;3.28;1.50;;;15.90;99.90;;;;;;5006031;28;20033;-80
2023/08/04 03:56:15;;;;;;;6.60;2.05;;;15.90;99.90;;;;;;4997931;28;20073;-81
2023/08/04 03:58:41;;;;;;;6.05;1.95;;;15.90;99.90;;;;;;5010515;28;20071;-80
2023/08/04 04:01:07;;;;;;;6.65;2.03;;;15.90;99.90;;;;;;4999583;28;20046;-80
2023/08/04 04:03:32;;;;;;;5.07;1.98;;;15.90;99.90;;;;;;4985276;28;20410;-80
2023/08/04 04:05:58;;;;;;;5.15;2.00;;;15.90;99.90;;;;;;4998991;28;20038;-80
2023/08/04 04:08:25;;;;;;;4.60;2.05;;;16.00;99.90;;;;;;5024036;28;20089;-80
2023/08/04 04:10:50;;;;;;;4.60;1.90;;;15.90;99.90;;;;;;4988996;28;20559;-80
2023/08/04 04:13:16;;;;;;;6.05;2.17;;;15.90;99.90;;;;;;5027615;28;20069;-81
2023/08/04 04:15:41;;;;;;;4.38;2.28;;;15.90;99.90;;;;;;5015827;28;20128;-80
2023/08/04 04:18:07;;;;;;;5.25;1.75;;;15.90;99.90;;;;;;5006584;28;20042;-81
2023/08/04 04:20:33;;;;;;;5.75;1.95;;;15.90;99.90;;;;;;4997858;28;20477;-81
2023/08/04 04:22:58;;;;;;;7.28;1.85;;;15.90;99.90;;;;;;4997045;28;20049;-81
2023/08/04 04:25:24;;;;;;;3.60;1.75;;;15.90;99.90;;;;;;5001521;28;20375;-81
2023/08/04 04:27:49;;;;;;;4.03;2.00;;;15.90;99.90;;;;;;5005497;28;20030;-81
2023/08/04 04:30:15;;;;;;;9.25;2.60;;;15.90;99.90;;;;;;5003197;28;20052;-81
2023/08/04 04:32:41;;;;;;;3.85;1.98;;;15.90;99.90;;;;;;5000197;28;20096;-81
2023/08/04 04:35:06;;;;;;;5.40;1.98;;;15.90;99.90;;;;;;5015576;28;20099;-81
2023/08/04 04:37:32;;;;;;;3.58;2.05;;;15.90;99.90;;;;;;5001419;28;20076;-81
2023/08/04 04:39:58;;;;;;;3.85;1.90;;;15.90;99.90;;;;;;5007108;28;20045;-81
2023/08/04 04:42:23;;;;;;;4.90;2.25;;;15.90;99.90;;;;;;5020316;28;20397;-81
2023/08/04 04:44:49;;;;;;;4.80;1.90;;;15.90;99.90;;;;;;5001803;28;20048;-81
2023/08/04 04:47:14;;;;;;;6.75;2.00;;;16.00;99.90;;;;;;5020941;28;20775;-80
2023/08/04 04:49:40;;;;;;;3.03;1.77;;;16.00;99.90;;;;;;4985462;28;20045;-81
2023/08/04 04:52:06;;;;;;;3.65;1.73;;;16.00;99.90;;;;;;5002041;28;20053;-81
2023/08/04 04:54:32;;;;;;;3.33;1.60;;;16.00;99.90;;;;;;5018932;28;20044;-80
2023/08/04 04:56:57;;;;;;;8.80;2.03;;;16.00;99.90;;;;;;5016126;28;20041;-81
2023/08/04 04:59:23;;;;;;;4.80;1.73;;;16.00;99.90;;;;;;5007607;28;20099;-80
2023/08/04 05:01:49;;;;;;;4.10;1.98;;;16.00;99.90;;;;;;5004366;28;20038;-80
2023/08/04 05:04:14;;;;;;;5.20;1.90;;;16.10;99.90;;;;;;4998197;28;20393;-80
2023/08/04 05:06:40;;;;;;;4.10;1.73;;;16.00;99.90;;;;;;5006004;28;20064;-81
2023/08/04 05:09:06;;;;;;;6.28;2.00;;;16.10;99.90;;;;;;5001513;28;20045;-81
2023/08/04 05:11:32;;;;;;;3.95;1.98;;;16.10;99.90;;;;;;5015598;28;20486;-81
2023/08/04 05:13:57;;;;;;;4.30;1.73;;;16.10;99.90;;;;;;5005809;28;20109;-81
2023/08/04 05:16:23;;;;;;;3.67;1.60;;;16.10;99.90;;;;;;5004661;28;20044;-81
2023/08/04 05:18:51;;;;;;;4.95;2.03;;;16.10;99.90;;;;;;5001247;28;20046;-80
2023/08/04 05:21:16;;;;;;;2.90;1.70;;;16.20;99.90;;;;;;5006608;28;20046;-81
2023/08/04 05:23:42;;;;;;;5.28;2.20;;;16.20;99.90;;;;;;5003751;28;20309;-80
2023/08/04 05:26:08;;;;;;;3.75;2.00;;;16.20;99.90;;;;;;5005570;28;20030;-81
2023/08/04 05:28:33;;;;;;;3.42;1.63;;;16.20;99.90;;;;;;5001026;28;20037;-81
2023/08/04 05:31:01;;;;;;;5.95;2.15;;;16.30;99.90;;;;;;5008227;28;20410;-80
2023/08/04 05:33:28;;;;;;;3.25;1.80;;;16.30;99.90;;;;;;5019410;28;20087;-81
2023/08/04 05:35:54;;;;;;;2.60;1.65;;;16.40;99.90;;;;;;5001347;28;20046;-82
2023/08/04 05:38:20;;;;;;;2.60;1.80;;;16.40;99.90;;;;;;5002169;28;20053;-81
2023/08/04 05:40:47;;;;;;;2.53;1.63;;;16.50;99.90;;;;;;4999037;28;20097;-81
2023/08/04 05:43:13;;;;;;;2.75;1.58;;;16.50;99.90;;;;;;5001709;28;20502;-80
2023/08/04 05:45:41;;;;;;;3.15;1.77;;;16.50;99.90;;;;;;5001154;28;20048;-79
2023/08/04 05:48:07;;;;;;;3.58;1.73;;;16.50;99.90;;;;;;5007224;28;20052;-81
2023/08/04 05:50:33;;;;;;;3.17;1.67;;;16.50;99.90;;;;;;5009074;28;20094;-81
2023/08/04 05:52:59;;;;;;;3.67;1.70;;;16.50;99.90;;;;;;4997006;28;20124;-80
2023/08/04 05:55:25;;;;;;;3.47;1.70;;;16.50;99.90;;;;;;5000303;28;20117;-80
2023/08/04 06:05:54;;;;;;;2.78;1.60;;;16.60;99.90;;;;;;5051125;28;20075;-84
2023/08/04 06:12:21;;;;;;;2.38;1.40;;;16.70;99.90;;;;;;5073620;28;20047;-82
2023/08/04 06:30:26;;;;;;;4.32;1.60;;;16.80;99.90;;;;;;4990894;28;20125;-83
2023/08/04 06:44:45;;;;;;;8.40;2.30;;;16.90;99.90;;;;;;4997093;28;20117;-85
2023/08/04 06:48:01;;;;;;;4.03;1.60;;;17.00;99.90;;;;;;4937288;29;20451;-81
2023/08/04 09:08:09;;;;;;;2.90;1.42;;;19.10;99.90;;;;;;5071762;28;20093;-82
2023/08/04 09:14:56;;;;;;;4.50;1.70;;;19.40;99.90;;;;;;5009208;28;20103;-80
2023/08/04 09:17:33;;;;;;;3.78;2.03;;;19.20;99.90;;;;;;5050185;28;20033;-79
2023/08/04 09:20:00;;;;;;;3.97;1.77;;;19.00;99.90;;;;;;5051718;28;20186;-81
2023/08/04 09:22:26;;;;;;;3.10;1.50;;;18.80;99.90;;;;;;5045519;28;20032;-81
2023/08/04 09:24:59;;;;;;;6.38;1.75;;;18.70;99.90;;;;;;5041795;28;20063;-81
2023/08/04 09:27:34;;;;;;;4.38;1.70;;;18.70;99.90;;;;;;5049464;28;20032;-80
2023/08/04 09:30:03;;;;;;;4.50;1.83;;;18.70;99.90;;;;;;5041793;28;20106;-81
2023/08/04 09:32:30;;;;;;;3.15;1.67;;;18.70;99.90;;;;;;5038661;28;20068;-81
2023/08/04 10:32:09;;;;;;;3.42;1.60;;;20.80;99.90;;;;;;5052448;28;20086;-81
2023/08/04 12:01:01;;;;;;;5.13;1.67;;;22.10;99.90;;;;;;5048400;22;20108;-64
2023/08/04 12:03:48;;;;;;;;;;;22.30;99.90;;;;;;5002631;28;20491;-64
2023/08/04 12:06:18;;;;;;;;;;;22.60;99.90;;;;;;4989025;28;19997;-63
2023/08/04 12:09:03;;;;;;;;;;;22.90;99.90;;;;;;5008337;28;19971;-64
2023/08/04 12:11:29;;;;;;;;;;;22.90;99.90;;;;;;5003992;28;19971;-64
2023/08/04 12:14:08;;;;;;;4.63;1.80;;;22.60;99.90;;;;;;5008204;28;19970;-63
2023/08/04 12:16:50;;;;;;;5.45;1.85;;;22.40;99.90;;;;;;4992350;28;20041;-64
2023/08/04 12:19:17;;;;;;;4.93;1.70;;;22.20;99.90;;;;;;5003411;28;20042;-64
2023/08/04 12:21:42;;;;;;;6.35;2.25;;;22.00;99.90;;;;;;5001025;28;20080;-64
2023/08/04 12:24:08;;;;;;;4.30;1.70;;;21.90;99.90;;;;;;5008270;28;20052;-64
2023/08/04 12:26:33;;;;;;;3.38;1.70;;;21.80;99.90;;;;;;5021805;28;20404;-64
2023/08/04 12:28:59;;;;;;;3.35;1.80;;;21.70;99.90;;;;;;5025630;28;20069;-64
2023/08/04 12:31:25;;;;;;;6.22;2.03;;;21.60;99.90;;;;;;5008725;28;20096;-64
2023/08/04 12:33:50;;;;;;;6.57;2.10;;;21.60;99.90;;;;;;4997362;28;20045;-64
2023/08/04 12:36:16;;;;;;;5.70;1.70;;;21.60;99.90;;;;;;4989114;28;20037;-64
2023/08/04 12:38:41;;;;;;;4.38;2.05;;;21.60;99.90;;;;;;5010418;28;20092;-64
2023/08/04 12:41:09;;;;;;;5.50;2.13;;;21.40;99.90;;;;;;5005435;28;20081;-65
2023/08/04 12:43:34;;;;;;;4.85;2.00;;;21.20;99.90;;;;;;4977756;28;20327;-65
2023/08/04 12:46:00;;;;;;;5.88;2.25;;;20.90;99.90;;;;;;4992107;28;20137;-65
2023/08/04 12:48:26;;;;;;;6.70;2.13;;;20.80;99.90;;;;;;5002275;28;20049;-64
2023/08/04 12:50:51;;;;;;;6.10;2.40;;;20.60;99.90;;;;;;4981613;28;20489;-64
2023/08/04 12:53:17;;;;;;;4.72;2.30;;;20.60;99.90;;;;;;5010811;28;20034;-63
2023/08/04 12:55:43;;;;;;;5.63;2.40;;;20.70;99.90;;;;;;5001837;28;20034;-63
2023/08/04 12:58:08;;;;;;;5.95;2.53;;;20.90;99.90;;;;;;5008791;28;20041;-64
2023/08/04 13:00:34;;;;;;;6.75;2.30;;;21.20;99.90;;;;;;5005033;28;20068;-63
2023/08/04 13:02:59;;;;;;;5.00;2.20;;;21.50;99.90;;;;;;5019498;28;20038;-64
2023/08/04 13:05:25;;;;;;;4.32;2.20;;;21.70;99.90;;;;;;5016925;28;20095;-63
2023/08/04 13:07:51;;;;;;;2.88;1.88;;;22.00;99.90;;;;;;5022996;28;20160;-66
2023/08/04 13:10:16;;;;;;;7.80;2.83;;;22.20;99.90;;;;;;5021620;28;20042;-63
2023/08/04 13:12:42;;;;;;;4.85;2.03;;;22.50;99.90;;;;;;5016336;28;20564;-63
2023/08/04 13:15:08;;;;;;;4.22;1.90;;;22.70;99.90;;;;;;4998229;28;20049;-64
2023/08/04 13:17:34;;;;;;;5.82;1.83;;;22.80;99.90;;;;;;5021813;28;20037;-63
2023/08/04 13:20:00;;;;;;;6.45;1.90;;;23.00;99.90;;;;;;5013672;28;20036;-63
2023/08/04 13:22:25;;;;;;;3.78;2.10;;;22.90;99.90;;;;;;4990104;28;20041;-63
2023/08/04 13:24:51;;;;;;;3.67;1.70;;;22.90;99.90;;;;;;5015774;28;20041;-63
2023/08/04 13:27:16;;;;;;;3.75;1.58;;;22.70;99.90;;;;;;5002226;28;20500;-63
2023/08/04 13:29:42;;;;;;;4.95;1.90;;;22.60;99.90;;;;;;5017374;28;20049;-63
2023/08/04 13:32:08;;;;;;;6.63;1.90;;;22.40;99.90;;;;;;5016001;28;20436;-63
2023/08/04 13:34:33;;;;;;;3.90;1.50;;;22.20;99.90;;;;;;5026074;28;20037;-63
2023/08/04 13:36:59;;;;;;;5.03;1.88;;;22.30;99.90;;;;;;5019750;28;20080;-63
2023/08/04 13:39:25;;;;;;;3.28;1.27;;;22.30;99.90;;;;;;5001736;28;20561;-63
2023/08/04 13:41:50;;;;;;;3.20;1.58;;;22.40;99.90;;;;;;5021566;28;20034;-63
2023/08/04 13:44:16;;;;;;;3.38;1.55;;;22.40;99.90;;;;;;4996117;28;20126;-63
2023/08/04 13:46:42;;;;;;;3.78;1.58;;;22.40;99.90;;;;;;5019419;28;20037;-63
2023/08/04 13:49:07;;;;;;;4.90;1.80;;;22.30;99.90;;;;;;5019992;28;20455;-63
2023/08/04 13:51:33;;;;;;;3.97;1.48;;;22.10;99.90;;;;;;5022352;28;20036;-63
2023/08/04 13:53:58;;;;;;;5.03;1.80;;;21.90;99.90;;;;;;5014792;28;20033;-63
2023/08/04 13:56:24;;;;;;;2.35;1.35;;;21.70;99.90;;;;;;5008523;28;20033;-63
2023/08/04 13:58:51;;;;;;;4.57;1.65;;;21.50;99.90;;;;;;5014582;28;20407;-63
2023/08/04 14:01:17;;;;;;;6.05;1.67;;;21.40;99.90;;;;;;5009689;28;20464;-63
2023/08/04 14:03:42;;;;;;;4.35;1.95;;;21.40;99.90;;;;;;5010784;28;20073;-63
2023/08/04 14:06:08;;;;;;;4.13;1.40;;;21.50;99.90;;;;;;4995306;28;20128;-63
2023/08/04 14:08:34;;;;;;;3.05;1.55;;;21.60;99.90;;;;;;4992269;28;20041;-63
2023/08/04 14:10:59;;;;;;;6.22;1.80;;;21.80;99.90;;;;;;5018989;28;20053;-63
2023/08/04 14:13:25;;;;;;;4.47;2.00;;;22.00;99.90;;;;;;5010386;28;20038;-63
2023/08/04 14:15:51;;;;;;;4.10;1.80;;;22.00;99.90;;;;;;5001794;28;20103;-63
2023/08/04 14:18:16;;;;;;;3.88;1.70;;;22.10;99.90;;;;;;5012179;28;20479;-63
2023/08/04 14:20:42;;;;;;;4.22;1.77;;;22.10;99.90;;;;;;5017353;28;20037;-63
2023/08/04 14:23:08;;;;;;;4.45;1.83;;;22.00;99.90;;;;;;5020000;28;20495;-63
2023/08/04 14:25:34;;;;;;;4.70;1.35;;;22.00;99.90;;;;;;5026697;28;20407;-63
2023/08/04 14:28:00;;;;;;;3.55;1.70;;;22.00;99.90;;;;;;5022401;28;20045;-63
2023/08/04 14:30:25;;;;;;;3.55;1.80;;;21.90;99.90;;;;;;5010279;28;20145;-63
2023/08/04 14:32:51;;;;;;;6.35;1.70;;;21.90;99.90;;;;;;5025487;28;20040;-63
2023/08/04 14:35:17;;;;;;;2.78;1.30;;;22.00;99.90;;;;;;5009745;28;20448;-63
2023/08/04 14:37:42;;;;;;;3.38;1.63;;;22.00;99.90;;;;;;5019347;28;20045;-63
2023/08/04 14:40:09;;;;;;;2.97;1.70;;;22.10;99.90;;;;;;5002989;28;20046;-63
2023/08/04 14:42:34;;;;;;;5.55;1.77;;;22.20;99.90;;;;;;5026208;28;20049;-64
2023/08/04 14:45:00;;;;;;;5.88;2.33;;;22.10;99.90;;;;;;5004426;28;20046;-63
2023/08/04 14:47:26;;;;;;;3.80;1.70;;;22.00;99.90;;;;;;5009531;28;20037;-63
2023/08/04 14:49:51;;;;;;;4.13;1.80;;;21.90;99.90;;;;;;5024759;28;20045;-63
2023/08/04 14:52:17;;;;;;;5.63;1.70;;;21.80;99.90;;;;;;5024482;28;20037;-64
2023/08/04 14:54:43;;;;;;;4.38;1.73;;;21.80;99.90;;;;;;5001352;28;20045;-63
2023/08/04 14:57:08;;;;;;;9.30;2.22;;;21.80;99.90;;;;;;5002618;28;20113;-64
2023/08/04 14:59:34;;;;;;;4.13;1.85;;;22.00;99.90;;;;;;5020444;28;20503;-63
2023/08/04 15:02:00;;;;;;;3.15;1.65;;;22.20;99.90;;;;;;5008457;28;20125;-63
2023/08/04 15:04:26;;;;;;;5.03;1.70;;;22.30;99.90;;;;;;5003520;28;20487;-63
2023/08/04 15:06:52;;;;;;;4.35;1.90;;;22.60;99.90;;;;;;5026418;28;20483;-63
2023/08/04 15:09:17;;;;;;;3.63;1.70;;;22.70;99.90;;;;;;5002501;28;20318;-63
2023/08/04 15:11:43;;;;;;;4.78;1.95;;;22.80;99.90;;;;;;4992293;28;20496;-63
2023/08/04 15:14:09;;;;;;;4.85;1.60;;;22.90;99.90;;;;;;5022609;28;20079;-63
2023/08/04 15:16:35;;;;;;;4.65;1.88;;;22.90;99.90;;;;;;5004694;28;20411;-63
2023/08/04 15:19:01;;;;;;;4.40;1.85;;;22.80;99.90;;;;;;5027309;28;20132;-64
2023/08/04 15:21:27;;;;;;;4.05;1.80;;;22.80;99.90;;;;;;4991467;28;20045;-63
2023/08/04 15:23:52;;;;;;;6.53;1.95;;;22.80;99.90;;;;;;5002122;28;20033;-63
2023/08/04 15:26:18;;;;;;;5.05;1.90;;;22.80;99.90;;;;;;5014568;28;20038;-63
2023/08/04 15:28:47;;;;;;;5.22;1.90;;;22.80;99.90;;;;;;5022607;28;20041;-63
2023/08/04 15:31:13;;;;;;;4.70;1.77;;;22.70;99.90;;;;;;5026450;28;20041;-63
2023/08/04 15:33:38;;;;;;;4.43;1.67;;;22.70;99.90;;;;;;5016679;28;20095;-63
2023/08/04 15:36:08;;;;;;;3.45;1.50;;;22.60;99.90;;;;;;5022600;28;20044;-63
2023/08/04 15:38:35;;;;;;;4.78;1.65;;;22.50;99.90;;;;;;5018810;28;20500;-63
2023/08/04 15:41:02;;;;;;;4.70;1.88;;;22.50;99.90;;;;;;5018373;28;20045;-64
2023/08/04 15:43:28;;;;;;;5.95;1.90;;;22.40;99.90;;;;;;4990445;28;20077;-64
2023/08/04 15:45:54;;;;;;;6.25;1.98;;;22.30;99.90;;;;;;5007228;28;20071;-63
2023/08/04 15:48:20;;;;;;;4.18;1.80;;;22.20;99.90;;;;;;5004574;28;20045;-63
2023/08/04 15:50:46;;;;;;;4.57;1.90;;;22.20;99.90;;;;;;4997741;28;20484;-63
2023/08/04 15:53:11;;;;;;;4.03;1.63;;;22.20;99.90;;;;;;5005568;28;20129;-63
2023/08/04 15:55:37;;;;;;;6.47;2.33;;;22.10;99.90;;;;;;5020720;28;20080;-63
2023/08/04 15:58:03;;;;;;;6.28;2.00;;;22.10;99.90;;;;;;5000646;28;20030;-63
2023/08/04 16:00:28;;;;;;;4.80;2.20;;;22.10;99.90;;;;;;5005576;28;20037;-63
2023/08/04 16:02:54;;;;;;;4.97;2.15;;;22.00;99.90;;;;;;5018985;28;20070;-63
2023/08/04 16:05:20;;;;;;;3.95;2.00;;;21.90;99.90;;;;;;5025266;28;20124;-63
2023/08/04 16:07:46;;;;;;;3.67;1.98;;;21.80;99.90;;;;;;5022459;28;20084;-63
2023/08/04 16:10:11;;;;;;;4.93;2.15;;;21.70;99.90;;;;;;5021024;28;20137;-63
2023/08/04 16:12:37;;;;;;;8.10;2.08;;;21.70;99.90;;;;;;5008300;28;20135;-63
2023/08/04 16:15:03;;;;;;;3.45;1.80;;;21.70;99.90;;;;;;5020255;28;20042;-63
2023/08/04 16:17:29;;;;;;;3.85;1.90;;;21.70;99.90;;;;;;5008632;28;20037;-63
2023/08/04 16:19:54;;;;;;;5.65;1.80;;;21.80;99.90;;;;;;5025662;28;20063;-63
2023/08/04 16:22:20;;;;;;;5.78;2.17;;;21.70;99.90;;;;;;5012906;28;20053;-63
2023/08/04 16:24:46;;;;;;;4.18;1.98;;;21.60;99.90;;;;;;5003125;28;20042;-63
2023/08/04 16:27:15;;;;;;;4.25;2.05;;;21.50;99.90;;;;;;5019132;28;20037;-63
2023/08/04 16:29:40;;;;;;;3.95;1.73;;;21.40;99.90;;;;;;5007668;28;20041;-63
2023/08/04 16:32:07;;;;;;;4.22;1.92;;;21.30;99.90;;;;;;5016705;28;20045;-63
2023/08/04 16:34:32;;;;;;;4.25;1.90;;;21.30;99.90;;;;;;5016745;28;20044;-63
2023/08/04 16:36:58;;;;;;;4.30;2.00;;;21.30;99.90;;;;;;4998073;28;20049;-63
2023/08/04 16:39:24;;;;;;;3.25;1.83;;;21.30;99.90;;;;;;4999482;28;20049;-63
2023/08/04 16:41:50;;;;;;;6.28;2.20;;;21.20;99.90;;;;;;5022322;28;20074;-63
2023/08/04 16:44:16;;;;;;;14.05;2.53;;;21.20;99.90;;;;;;5016628;28;20416;-64
2023/08/04 16:46:43;;;;;;;30.02;3.17;;;21.10;99.90;;;;;;5025238;28;20044;-63
2023/08/04 16:49:09;;;;;;;15.65;3.28;;;21.10;99.90;;;;;;5015612;28;20037;-64
2023/08/04 16:51:34;;;;;;;6.82;2.03;;;21.10;99.90;;;;;;5005753;28;20084;-64
2023/08/04 16:54:00;;;;;;;10.10;2.10;;;21.10;99.90;;;;;;5020405;28;20033;-64
2023/08/04 16:56:26;;;;;;;3.55;1.80;;;21.10;99.90;;;;;;4994504;28;20049;-64
2023/08/04 16:58:52;;;;;;;5.80;2.00;;;21.10;99.90;;;;;;5016407;28;20041;-64
2023/08/04 17:01:17;;;;;;;5.50;2.13;;;21.20;99.90;;;;;;5024797;28;20071;-64
2023/08/04 17:03:43;;;;;;;5.45;1.83;;;21.20;99.90;;;;;;5007986;28;20128;-64
2023/08/04 17:06:17;;;;;;;4.53;2.03;;;21.10;99.90;;;;;;5004911;28;20132;-64
2023/08/04 17:08:42;;;;;;;4.40;1.73;;;21.10;99.90;;;;;;5024270;28;20520;-64
2023/08/04 17:11:08;;;;;;;4.53;2.13;;;21.20;99.90;;;;;;5021769;28;20042;-64
2023/08/04 17:13:34;;;;;;;6.35;2.30;;;21.20;99.90;;;;;;5029215;28;20033;-64
2023/08/04 17:16:10;;;;;;;5.75;1.80;;;21.20;99.90;;;;;;5007954;28;20489;-64
2023/08/04 17:18:35;;;;;;;4.43;1.90;;;21.20;99.90;;;;;;4990679;28;20053;-64
2023/08/04 17:21:01;;;;;;;4.95;2.05;;;21.10;99.90;;;;;;5011618;28;20510;-64
2023/08/04 17:23:26;;;;;;;6.20;2.08;;;21.10;99.90;;;;;;5007670;28;20060;-64
2023/08/04 17:25:52;;;;;;;3.80;1.90;;;21.10;99.90;;;;;;4994450;28;20035;-64
2023/08/04 17:28:19;;;;;;;3.28;1.63;;;21.00;99.90;;;;;;5008039;28;20038;-64
2023/08/04 17:30:46;;;;;;;5.15;1.73;;;20.90;99.90;;;;;;5014936;28;20084;-64
2023/08/04 17:33:11;;;;;;;5.47;1.98;;;20.90;99.90;;;;;;5008272;28;20073;-64
2023/08/04 17:35:41;;;;;;;6.38;2.50;;;20.90;99.90;;;;;;5008122;28;20080;-64
2023/08/04 17:38:07;;;;;;;5.60;1.95;;;20.80;99.90;;;;;;5004808;28;20040;-64
2023/08/04 17:40:33;;;;;;;5.13;2.10;;;20.80;99.90;;;;;;5015249;28;20049;-64
2023/08/04 17:42:58;;;;;;;5.88;1.92;;;20.70;99.90;;;;;;4992578;28;20566;-64
2023/08/04 17:45:24;;;;;;;6.13;2.20;;;20.70;99.90;;;;;;4992032;28;20038;-64
2023/08/04 17:47:50;;;;;;;5.47;1.98;;;20.70;99.90;;;;;;5002686;28;20077;-64
2023/08/04 17:50:16;;;;;;;5.97;1.80;;;20.60;99.90;;;;;;5014624;28;20075;-64
2023/08/04 17:52:41;;;;;;;5.50;2.20;;;20.50;99.90;;;;;;5008936;28;20060;-63
2023/08/04 17:55:07;;;;;;;4.60;2.05;;;20.40;99.90;;;;;;4991452;28;20718;-64
2023/08/04 17:57:33;;;;;;;4.43;2.28;;;20.30;99.90;;;;;;5006870;28;20105;-64
2023/08/04 17:59:58;;;;;;;4.32;2.17;;;20.20;99.90;;;;;;5010449;22;20038;-62
2023/08/04 18:02:24;;;;;;;4.57;2.30;;;20.10;99.90;;;;;;5027914;28;20040;-63
2023/08/04 18:04:50;;;;;;;6.57;2.42;;;20.10;99.90;;;;;;5025571;28;20060;-62
2023/08/04 18:07:16;;;;;;;6.65;2.75;;;20.00;99.90;;;;;;5014449;28;20395;-65
2023/08/04 18:09:43;;;;;;;5.40;2.45;;;19.90;99.90;;;;;;5028180;28;20541;-63